Time;durP1;ratioP1;P1;durP2;ratioP2;P2;SDS_P1;SDS_P2;PMS_P1;PMS_P2;Temp;Humidity;BMP_temperature;BMP_pressure;BME280_temperature;BME280_humidity;BME280_pressure;Samples;Min_cycle;Max_cycle;Signal;HPM_P1;HPM_P2
2023/06/07 00:01:08;;;;;;;8.30;7.50;;;12.70;99.90;;;;;;5112825;28;20574;-78
2023/06/07 00:03:38;;;;;;;8.37;7.57;;;12.60;99.90;;;;;;5111594;28;20281;-77
2023/06/07 00:06:08;;;;;;;9.20;8.30;;;12.60;99.90;;;;;;5112785;28;20218;-79
2023/06/07 00:08:37;;;;;;;8.47;7.67;;;12.60;99.90;;;;;;5112983;28;20226;-78
2023/06/07 00:11:06;;;;;;;9.43;8.40;;;12.50;99.90;;;;;;5112737;28;20217;-77
2023/06/07 00:13:37;;;;;;;8.83;8.00;;;12.50;99.90;;;;;;5111352;28;20213;-79
2023/06/07 00:16:05;;;;;;;9.00;8.10;;;12.40;99.90;;;;;;5112619;28;20644;-78
2023/06/07 00:18:34;;;;;;;9.70;8.70;;;12.40;99.90;;;;;;5112690;28;20572;-78
2023/06/07 00:21:02;;;;;;;9.47;8.40;;;12.40;99.90;;;;;;5112015;28;20205;-77
2023/06/07 00:23:30;;;;;;;10.43;8.70;;;12.30;99.90;;;;;;5111479;28;20210;-78
2023/06/07 00:25:59;;;;;;;10.03;8.50;;;12.30;99.90;;;;;;5112412;28;20217;-76
2023/06/07 00:28:29;;;;;;;8.93;7.87;;;12.30;99.90;;;;;;5111926;28;20297;-76
2023/06/07 00:30:57;;;;;;;9.30;8.40;;;12.30;99.90;;;;;;5111258;28;20218;-76
2023/06/07 00:33:25;;;;;;;9.57;8.63;;;12.20;99.90;;;;;;5112272;28;20210;-79
2023/06/07 00:35:53;;;;;;;9.67;8.77;;;12.20;99.90;;;;;;5112465;28;20233;-78
2023/06/07 00:38:21;;;;;;;9.20;8.23;;;12.20;99.90;;;;;;5112437;28;20198;-78
2023/06/07 00:40:49;;;;;;;8.73;7.93;;;12.20;99.90;;;;;;5114159;28;20271;-78
2023/06/07 00:43:18;;;;;;;10.40;7.90;;;12.20;99.90;;;;;;5116210;28;20227;-79
2023/06/07 00:45:47;;;;;;;8.53;7.70;;;12.20;99.90;;;;;;5116681;28;20201;-78
2023/06/07 00:48:15;;;;;;;8.93;8.03;;;12.10;99.90;;;;;;5116942;28;20257;-78
2023/06/07 00:50:44;;;;;;;8.80;7.93;;;12.10;99.90;;;;;;5115932;28;20220;-77
2023/06/07 00:53:13;;;;;;;8.90;8.10;;;12.00;99.90;;;;;;5116014;28;20241;-77
2023/06/07 00:55:41;;;;;;;9.43;8.53;;;12.00;99.90;;;;;;5116590;28;20225;-78
2023/06/07 00:58:10;;;;;;;11.37;8.70;;;11.90;99.90;;;;;;5115771;28;20589;-79
2023/06/07 01:00:38;;;;;;;10.07;8.43;;;11.90;99.90;;;;;;5117397;27;20296;-77
2023/06/07 01:03:08;;;;;;;9.70;8.70;;;11.90;99.90;;;;;;5117185;28;20609;-78
2023/06/07 01:05:37;;;;;;;9.43;8.37;;;11.90;99.90;;;;;;5116845;27;20277;-79
2023/06/07 01:08:06;;;;;;;8.70;7.80;;;11.80;99.90;;;;;;5120829;28;20592;-78
2023/06/07 01:10:36;;;;;;;8.97;8.07;;;11.80;99.90;;;;;;5119599;28;20651;-78
2023/06/07 01:13:05;;;;;;;9.87;8.73;;;11.80;99.90;;;;;;5117031;28;20214;-78
2023/06/07 01:15:33;;;;;;;10.03;8.37;;;11.70;99.90;;;;;;5115761;28;20293;-78
2023/06/07 01:18:02;;;;;;;9.17;8.33;;;11.80;99.90;;;;;;5119483;28;20210;-78
2023/06/07 01:20:34;;;;;;;10.33;9.20;;;11.70;99.90;;;;;;5122223;28;20256;-77
2023/06/07 01:23:05;;;;;;;10.07;8.30;;;11.80;99.90;;;;;;5117816;28;20220;-79
2023/06/07 01:25:35;;;;;;;9.97;8.97;;;11.70;99.90;;;;;;5117051;28;20199;-78
2023/06/07 01:28:05;;;;;;;10.17;9.20;;;11.70;99.90;;;;;;5110498;28;20199;-76
2023/06/07 01:30:34;;;;;;;10.40;9.40;;;11.70;99.90;;;;;;5096701;28;20222;-79
2023/06/07 01:33:05;;;;;;;9.83;9.00;;;11.60;99.90;;;;;;5108359;28;20206;-78
2023/06/07 01:35:34;;;;;;;10.87;9.67;;;11.60;99.90;;;;;;5116965;28;20488;-78
2023/06/07 01:38:03;;;;;;;10.40;9.40;;;11.60;99.90;;;;;;5116253;28;20251;-77
2023/06/07 01:40:35;;;;;;;10.30;9.27;;;11.60;99.90;;;;;;5115932;28;20575;-80
2023/06/07 01:43:05;;;;;;;10.30;9.23;;;11.50;99.90;;;;;;5114344;27;20292;-78
2023/06/07 01:45:34;;;;;;;9.90;8.93;;;11.50;99.90;;;;;;5115453;28;20214;-77
2023/06/07 01:48:02;;;;;;;9.80;8.83;;;11.50;99.90;;;;;;5115155;28;20206;-77
2023/06/07 01:50:31;;;;;;;9.97;9.07;;;11.50;99.90;;;;;;5114417;28;20257;-78
2023/06/07 01:52:59;;;;;;;11.83;9.23;;;11.40;99.90;;;;;;5113647;28;20309;-78
2023/06/07 01:55:28;;;;;;;10.20;9.20;;;11.40;99.90;;;;;;5115345;28;20226;-77
2023/06/07 01:58:06;;;;;;;10.47;9.50;;;11.30;99.90;;;;;;5114103;28;20525;-77
2023/06/07 02:00:44;;;;;;;10.37;9.37;;;11.30;99.90;;;;;;5115187;28;20560;-77
2023/06/07 02:03:20;;;;;;;10.33;9.23;;;11.20;99.90;;;;;;5114723;28;20213;-76
2023/06/07 02:05:52;;;;;;;10.47;9.37;;;11.20;99.90;;;;;;5115054;28;20214;-78
2023/06/07 02:08:28;;;;;;;10.37;9.33;;;11.10;99.90;;;;;;5113966;28;20650;-77
2023/06/07 02:10:58;;;;;;;9.70;8.70;;;11.10;99.90;;;;;;5114714;28;20221;-78
2023/06/07 02:13:30;;;;;;;11.53;9.27;;;11.10;99.90;;;;;;5114238;27;20206;-79
2023/06/07 02:15:59;;;;;;;10.47;9.27;;;11.00;99.90;;;;;;5107788;28;20264;-78
2023/06/07 02:18:27;;;;;;;10.90;9.80;;;11.00;99.90;;;;;;5094511;28;20287;-76
2023/06/07 02:20:55;;;;;;;10.27;8.90;;;11.00;99.90;;;;;;5094045;28;20260;-77
2023/06/07 02:23:24;;;;;;;10.17;9.17;;;11.00;99.90;;;;;;5094050;28;20211;-78
2023/06/07 02:25:52;;;;;;;9.87;8.87;;;10.90;99.90;;;;;;5107634;28;20582;-76
2023/06/07 02:28:20;;;;;;;10.30;9.17;;;10.90;99.90;;;;;;5094321;28;20214;-77
2023/06/07 02:30:51;;;;;;;10.87;9.30;;;10.90;99.90;;;;;;5094093;28;20226;-77
2023/06/07 02:33:21;;;;;;;10.50;9.40;;;10.80;99.90;;;;;;5093914;28;20207;-79
2023/06/07 02:35:49;;;;;;;11.10;9.13;;;10.80;99.90;;;;;;5107146;28;20733;-75
2023/06/07 02:38:17;;;;;;;10.00;9.00;;;10.80;99.90;;;;;;5114492;28;20206;-78
2023/06/07 02:40:46;;;;;;;9.80;8.90;;;10.80;99.90;;;;;;5114320;28;20248;-79
2023/06/07 02:43:14;;;;;;;10.13;8.93;;;10.70;99.90;;;;;;5114028;28;20240;-78
2023/06/07 02:45:42;;;;;;;10.20;9.20;;;10.70;99.90;;;;;;5113367;28;20221;-79
2023/06/07 02:48:15;;;;;;;10.63;8.80;;;10.60;99.90;;;;;;5114266;28;20267;-78
2023/06/07 02:50:43;;;;;;;10.07;9.07;;;10.60;99.90;;;;;;5114075;28;20214;-77
2023/06/07 02:53:11;;;;;;;13.93;10.20;;;10.50;99.90;;;;;;5113575;28;20259;-77
2023/06/07 02:55:39;;;;;;;11.93;10.73;;;10.50;99.90;;;;;;5113728;28;20265;-78
2023/06/07 02:58:08;;;;;;;11.83;10.50;;;10.50;99.90;;;;;;5114111;28;20206;-78
2023/06/07 03:00:36;;;;;;;11.13;10.13;;;10.50;99.90;;;;;;5113645;28;20728;-77
2023/06/07 03:03:05;;;;;;;13.80;11.13;;;10.50;99.90;;;;;;5112671;28;20234;-78
2023/06/07 03:05:35;;;;;;;13.10;11.27;;;10.50;99.90;;;;;;5113427;28;20217;-76
2023/06/07 03:08:05;;;;;;;11.13;10.00;;;10.50;99.90;;;;;;5113934;28;20216;-78
2023/06/07 03:10:33;;;;;;;12.03;10.80;;;10.50;99.90;;;;;;5113364;28;20546;-79
2023/06/07 03:13:01;;;;;;;12.73;11.40;;;10.50;99.90;;;;;;5112722;28;20422;-79
2023/06/07 03:15:29;;;;;;;13.70;10.90;;;10.50;99.90;;;;;;5113349;28;20482;-78
2023/06/07 03:17:58;;;;;;;13.23;10.97;;;10.50;99.90;;;;;;5113344;28;20213;-77
2023/06/07 03:20:28;;;;;;;11.73;10.63;;;10.50;99.90;;;;;;5112650;28;20205;-77
2023/06/07 03:22:58;;;;;;;13.60;11.47;;;10.50;99.90;;;;;;5108918;28;20202;-80
2023/06/07 03:25:26;;;;;;;12.63;11.33;;;10.50;99.90;;;;;;5105295;28;20205;-76
2023/06/07 03:27:55;;;;;;;13.80;12.40;;;10.40;99.90;;;;;;5092770;28;20668;-77
2023/06/07 03:30:23;;;;;;;11.77;10.43;;;10.40;99.90;;;;;;5101544;28;20218;-78
2023/06/07 03:32:51;;;;;;;12.63;10.80;;;10.40;99.90;;;;;;5111218;28;20228;-77
2023/06/07 03:35:20;;;;;;;12.60;11.33;;;10.50;99.90;;;;;;5112182;28;20578;-78
2023/06/07 03:37:49;;;;;;;12.77;11.27;;;10.50;99.90;;;;;;5112907;28;20263;-78
2023/06/07 03:40:18;;;;;;;12.43;11.13;;;10.50;99.90;;;;;;5112910;28;20206;-77
2023/06/07 03:42:46;;;;;;;12.03;10.77;;;10.50;99.90;;;;;;5113777;28;20406;-78
2023/06/07 03:45:15;;;;;;;13.67;11.37;;;10.50;99.90;;;;;;5114322;28;20210;-78
2023/06/07 03:47:44;;;;;;;12.00;10.70;;;10.50;99.90;;;;;;5112972;28;20620;-78
2023/06/07 03:50:13;;;;;;;11.90;10.53;;;10.50;99.90;;;;;;5112689;28;20317;-76
2023/06/07 03:52:41;;;;;;;14.00;10.07;;;10.50;99.90;;;;;;5112352;28;20668;-77
2023/06/07 03:55:09;;;;;;;11.87;10.53;;;10.50;99.90;;;;;;5111525;28;20283;-76
2023/06/07 03:57:40;;;;;;;13.90;12.40;;;10.50;99.90;;;;;;5112864;28;20217;-77
2023/06/07 04:00:10;;;;;;;12.70;11.40;;;10.60;99.90;;;;;;5092576;28;20339;-78
2023/06/07 04:02:39;;;;;;;12.13;10.83;;;10.60;99.90;;;;;;5093204;28;20215;-79
2023/06/07 04:05:08;;;;;;;14.27;10.77;;;10.60;99.90;;;;;;5115521;28;20217;-76
2023/06/07 04:07:40;;;;;;;13.03;10.63;;;10.70;99.90;;;;;;5112980;28;20524;-78
2023/06/07 04:10:09;;;;;;;12.53;11.33;;;10.70;99.90;;;;;;5112483;28;20229;-79
2023/06/07 04:12:37;;;;;;;12.43;10.87;;;10.70;99.90;;;;;;5111168;28;20214;-77
2023/06/07 04:15:07;;;;;;;13.17;11.53;;;10.80;99.90;;;;;;5112171;28;20207;-79
2023/06/07 04:17:36;;;;;;;12.77;11.40;;;10.80;99.90;;;;;;5112336;28;20668;-77
2023/06/07 04:20:06;;;;;;;12.13;10.93;;;10.90;99.90;;;;;;5111461;28;20213;-77
2023/06/07 04:22:35;;;;;;;11.10;10.00;;;11.00;99.90;;;;;;5112195;28;20298;-78
2023/06/07 04:25:04;;;;;;;12.60;11.07;;;11.00;99.90;;;;;;5095614;28;20551;-78
2023/06/07 04:27:34;;;;;;;12.10;11.00;;;11.10;99.90;;;;;;5092693;28;20227;-78
2023/06/07 04:30:02;;;;;;;12.80;11.60;;;11.20;99.90;;;;;;5112250;28;20222;-76
2023/06/07 04:32:33;;;;;;;12.60;11.43;;;11.30;99.90;;;;;;5112209;28;20549;-80
2023/06/07 04:35:02;;;;;;;12.10;11.00;;;11.30;99.90;;;;;;5112499;28;20210;-78
2023/06/07 04:37:31;;;;;;;12.00;10.73;;;11.40;99.90;;;;;;5111238;28;20202;-77
2023/06/07 04:39:59;;;;;;;12.27;10.77;;;11.40;99.90;;;;;;5112103;28;20202;-78
2023/06/07 04:42:28;;;;;;;11.63;10.57;;;11.60;99.90;;;;;;5111829;28;20224;-80
2023/06/07 04:45:00;;;;;;;11.37;10.27;;;11.60;99.90;;;;;;5110940;28;20263;-79
2023/06/07 04:47:29;;;;;;;12.33;11.13;;;11.60;99.90;;;;;;5112501;28;20206;-78
2023/06/07 04:49:59;;;;;;;12.27;10.50;;;11.70;99.90;;;;;;5110971;28;20238;-78
2023/06/07 04:52:28;;;;;;;12.57;10.07;;;11.80;99.90;;;;;;5110608;28;20206;-79
2023/06/07 04:54:58;;;;;;;12.77;11.23;;;11.80;99.90;;;;;;5111742;28;20599;-80
2023/06/07 04:57:26;;;;;;;12.47;10.83;;;11.90;99.90;;;;;;5111169;28;20289;-77
2023/06/07 04:59:54;;;;;;;11.77;10.77;;;12.00;99.90;;;;;;5111988;28;20249;-78
2023/06/07 05:02:22;;;;;;;12.33;11.23;;;12.10;99.90;;;;;;5096265;28;20254;-80
2023/06/07 05:04:53;;;;;;;12.63;11.53;;;12.10;99.90;;;;;;5091577;28;20207;-79
2023/06/07 05:07:23;;;;;;;11.43;10.43;;;12.20;99.90;;;;;;5091788;28;20207;-80
2023/06/07 05:09:51;;;;;;;11.73;10.50;;;12.40;99.90;;;;;;5091547;28;20223;-79
2023/06/07 05:12:19;;;;;;;11.40;10.30;;;12.50;99.90;;;;;;5108155;28;20249;-79
2023/06/07 05:14:47;;;;;;;12.17;10.97;;;12.50;99.90;;;;;;5113449;28;20719;-78
2023/06/07 05:17:19;;;;;;;10.37;9.47;;;12.60;99.90;;;;;;5113979;28;20206;-79
2023/06/07 05:19:47;;;;;;;12.03;10.83;;;12.80;99.90;;;;;;5115693;28;20191;-79
2023/06/07 05:22:15;;;;;;;11.50;10.50;;;12.80;99.90;;;;;;5109993;28;20252;-78
2023/06/07 05:24:48;;;;;;;10.73;9.73;;;12.90;99.90;;;;;;5093189;28;20265;-78
2023/06/07 05:27:17;;;;;;;11.03;9.93;;;13.00;99.90;;;;;;5095421;28;20251;-77
2023/06/07 05:29:45;;;;;;;11.13;9.93;;;13.10;99.90;;;;;;5109627;28;20217;-79
2023/06/07 05:32:13;;;;;;;10.20;9.20;;;13.20;99.90;;;;;;5116251;28;20263;-79
2023/06/07 05:34:45;;;;;;;10.20;9.00;;;13.30;99.90;;;;;;5116889;27;20210;-79
2023/06/07 05:37:13;;;;;;;11.10;10.00;;;13.50;99.90;;;;;;5114573;28;20681;-79
2023/06/07 05:39:45;;;;;;;10.07;9.10;;;13.60;99.90;;;;;;5115796;28;20663;-78
2023/06/07 05:42:15;;;;;;;9.43;8.53;;;13.70;99.90;;;;;;5115440;28;20197;-79
2023/06/07 05:44:45;;;;;;;9.50;8.50;;;13.90;99.90;;;;;;5114698;28;20210;-78
2023/06/07 05:47:14;;;;;;;10.00;9.10;;;14.10;99.90;;;;;;5095316;28;20195;-78
2023/06/07 05:49:43;;;;;;;8.60;7.80;;;14.40;99.90;;;;;;5095192;28;20226;-77
2023/06/07 05:52:13;;;;;;;7.23;6.53;;;14.70;99.90;;;;;;5094837;28;20251;-77
2023/06/07 05:54:48;;;;;;;8.23;6.60;;;15.70;99.90;;;;;;5106217;28;20227;-77
2023/06/07 05:57:18;;;;;;;5.87;5.17;;;16.70;99.90;;;;;;5115773;28;20210;-76
2023/06/07 05:59:46;;;;;;;6.60;5.50;;;18.20;99.90;;;;;;5116302;28;20210;-77
2023/06/07 06:02:16;;;;;;;7.93;5.67;;;19.10;99.90;;;;;;5114321;28;20199;-77
2023/06/07 06:04:44;;;;;;;5.37;4.33;;;20.00;99.90;;;;;;5095543;28;20206;-76
2023/06/07 06:07:12;;;;;;;5.23;4.73;;;21.00;99.90;;;;;;5095314;28;20214;-76
2023/06/07 06:09:41;;;;;;;5.40;4.90;;;21.70;99.90;;;;;;5095530;28;20210;-80
2023/06/07 06:12:10;;;;;;;5.57;4.77;;;22.30;99.90;;;;;;5112079;28;20287;-77
2023/06/07 06:14:40;;;;;;;5.77;5.20;;;22.80;99.90;;;;;;5130384;28;20207;-75
2023/06/07 06:17:08;;;;;;;5.63;5.07;;;22.60;99.90;;;;;;5125108;28;20259;-76
2023/06/07 06:19:37;;;;;;;5.50;4.17;;;23.20;98.70;;;;;;5115441;28;20244;-76
2023/06/07 06:22:05;;;;;;;5.37;4.53;;;23.80;99.90;;;;;;5114909;28;20293;-77
2023/06/07 06:24:33;;;;;;;5.27;4.80;;;24.20;97.50;;;;;;5107667;28;20568;-76
2023/06/07 06:27:01;;;;;;;5.57;4.90;;;24.50;95.60;;;;;;5100020;28;20289;-78
2023/06/07 06:29:30;;;;;;;5.40;4.28;;;24.40;94.00;;;;;;5115295;28;20602;-76
2023/06/07 06:32:00;;;;;;;4.57;4.18;;;24.30;95.00;;;;;;5114526;28;20276;-77
2023/06/07 06:34:29;;;;;;;4.75;4.35;;;24.80;94.70;;;;;;5115034;28;20298;-79
2023/06/07 06:36:59;;;;;;;4.95;4.22;;;25.50;94.30;;;;;;5113476;28;20288;-79
2023/06/07 06:39:28;;;;;;;5.13;4.60;;;26.40;92.50;;;;;;5114590;28;20259;-76
2023/06/07 06:41:56;;;;;;;4.93;4.20;;;26.40;89.80;;;;;;5114248;28;20202;-78
2023/06/07 06:44:26;;;;;;;5.50;4.75;;;26.50;90.50;;;;;;5115625;28;20210;-77
2023/06/07 06:46:54;;;;;;;6.65;4.88;;;26.20;89.00;;;;;;5113257;28;20235;-77
2023/06/07 06:49:24;;;;;;;6.35;5.20;;;24.60;91.40;;;;;;5115471;28;20253;-80
2023/06/07 06:51:52;;;;;;;5.50;4.95;;;26.10;87.90;;;;;;5114462;28;20222;-79
2023/06/07 06:54:21;;;;;;;5.78;4.63;;;25.80;87.80;;;;;;5114574;28;20237;-78
2023/06/07 06:56:49;;;;;;;5.85;5.35;;;26.00;87.00;;;;;;5113235;28;20210;-78
2023/06/07 06:59:17;;;;;;;7.35;5.22;;;24.00;91.60;;;;;;5114544;28;20217;-77
2023/06/07 07:01:46;;;;;;;4.93;4.43;;;23.20;94.20;;;;;;5114439;28;20232;-78
2023/06/07 07:04:16;;;;;;;6.03;5.25;;;25.40;92.30;;;;;;5113345;28;20214;-77
2023/06/07 07:06:46;;;;;;;5.03;4.53;;;24.60;91.90;;;;;;5113999;28;20293;-77
2023/06/07 07:09:14;;;;;;;5.75;5.20;;;25.60;91.90;;;;;;5114488;28;20219;-79
2023/06/07 07:11:42;;;;;;;9.02;4.85;;;24.70;92.70;;;;;;5116034;28;20226;-79
2023/06/07 07:14:10;;;;;;;4.60;4.20;;;25.30;91.90;;;;;;5110954;28;20218;-79
2023/06/07 07:16:39;;;;;;;5.78;5.07;;;25.30;91.10;;;;;;5093346;28;20684;-77
2023/06/07 07:19:08;;;;;;;5.78;4.40;;;25.40;91.70;;;;;;5096594;28;20210;-78
2023/06/07 07:21:37;;;;;;;8.18;6.20;;;26.30;90.50;;;;;;5114990;28;20210;-78
2023/06/07 07:24:08;;;;;;;9.18;7.25;;;26.20;87.80;;;;;;5113078;28;20202;-80
2023/06/07 07:26:38;;;;;;;8.55;6.40;;;25.00;90.40;;;;;;5114463;28;20639;-79
2023/06/07 07:29:07;;;;;;;7.47;5.93;;;24.90;92.70;;;;;;5115632;27;20616;-80
2023/06/07 07:31:35;;;;;;;7.10;6.40;;;26.10;90.40;;;;;;5116546;28;20242;-76
2023/06/07 07:34:04;;;;;;;6.82;6.22;;;24.80;90.30;;;;;;5117274;28;20255;-77
2023/06/07 07:36:33;;;;;;;5.68;5.07;;;24.90;92.30;;;;;;5117511;28;20664;-77
2023/06/07 07:39:04;;;;;;;5.63;5.03;;;25.40;91.90;;;;;;5119481;28;20263;-77
2023/06/07 07:41:34;;;;;;;5.10;4.60;;;25.00;91.20;;;;;;5101970;28;20609;-79
2023/06/07 07:44:02;;;;;;;6.07;5.20;;;25.30;92.20;;;;;;5101253;28;20629;-78
2023/06/07 07:46:30;;;;;;;5.05;4.65;;;26.90;85.80;;;;;;5097360;28;20230;-79
2023/06/07 07:48:58;;;;;;;5.00;4.50;;;26.30;87.40;;;;;;5093467;28;20617;-79
2023/06/07 07:51:27;;;;;;;5.95;4.82;;;27.30;85.40;;;;;;5093095;28;20613;-78
2023/06/07 07:53:56;;;;;;;7.00;5.00;;;28.30;81.20;;;;;;5094555;28;20206;-77
2023/06/07 07:56:24;;;;;;;7.00;5.32;;;26.50;84.40;;;;;;5097292;28;20247;-78
2023/06/07 07:58:54;;;;;;;8.48;5.72;;;26.80;83.60;;;;;;5096724;28;20210;-79
2023/06/07 08:01:22;;;;;;;9.13;5.80;;;25.90;89.50;;;;;;5115942;28;20251;-78
2023/06/07 08:03:51;;;;;;;5.95;5.30;;;27.60;81.10;;;;;;5115287;28;20248;-78
2023/06/07 08:06:20;;;;;;;5.82;4.82;;;26.90;81.10;;;;;;5116794;28;20202;-77
2023/06/07 08:08:48;;;;;;;5.65;4.63;;;25.80;85.30;;;;;;5110416;28;20632;-78
2023/06/07 08:11:16;;;;;;;8.02;5.43;;;25.00;88.60;;;;;;5093746;28;20302;-80
2023/06/07 08:13:44;;;;;;;6.68;5.20;;;24.00;90.40;;;;;;5094966;28;20258;-79
2023/06/07 08:16:14;;;;;;;8.63;5.70;;;23.80;92.10;;;;;;5097094;28;20209;-79
2023/06/07 08:18:44;;;;;;;6.47;5.87;;;22.90;94.80;;;;;;5115313;28;20237;-80
2023/06/07 08:21:12;;;;;;;9.03;6.03;;;22.40;97.70;;;;;;5115656;28;20210;-78
2023/06/07 08:23:43;;;;;;;7.47;5.20;;;22.20;99.00;;;;;;5115044;28;20202;-79
2023/06/07 08:26:12;;;;;;;10.17;4.83;;;22.30;99.60;;;;;;5095872;28;20680;-78
2023/06/07 08:28:40;;;;;;;8.07;5.20;;;22.70;98.70;;;;;;5099202;28;20260;-79
2023/06/07 08:31:10;;;;;;;7.97;4.60;;;22.80;97.60;;;;;;5103166;28;20206;-81
2023/06/07 08:33:40;;;;;;;5.73;5.07;;;23.40;98.30;;;;;;5111941;28;20226;-78
2023/06/07 08:36:08;;;;;;;10.13;4.87;;;23.90;96.70;;;;;;5115349;28;20210;-79
2023/06/07 08:38:39;;;;;;;5.30;4.80;;;23.90;97.00;;;;;;5115691;28;20209;-79
2023/06/07 08:41:08;;;;;;;7.97;5.90;;;23.60;97.10;;;;;;5112798;28;20240;-78
2023/06/07 08:43:37;;;;;;;5.77;5.13;;;22.70;96.50;;;;;;5117259;28;20206;-78
2023/06/07 08:46:06;;;;;;;6.17;5.57;;;22.90;97.50;;;;;;5114487;28;20267;-79
2023/06/07 08:48:35;;;;;;;8.53;5.87;;;23.80;97.20;;;;;;5116386;28;20199;-77
2023/06/07 08:51:08;;;;;;;7.47;6.10;;;23.40;97.60;;;;;;5114673;28;20224;-78
2023/06/07 08:53:47;;;;;;;5.70;5.10;;;22.30;98.40;;;;;;5123436;28;20625;-80
2023/06/07 08:56:17;;;;;;;7.00;5.13;;;22.10;99.50;;;;;;5120656;28;20658;-79
2023/06/07 08:58:50;;;;;;;6.07;4.90;;;21.70;99.90;;;;;;5128968;28;20244;-78
2023/06/07 09:01:20;;;;;;;6.30;4.90;;;21.70;99.90;;;;;;5122398;28;20193;-80
2023/06/07 09:03:52;;;;;;;6.47;4.50;;;22.00;99.90;;;;;;5129875;28;20206;-79
2023/06/07 09:06:24;;;;;;;5.87;4.70;;;23.40;99.30;;;;;;5102767;28;20214;-78
2023/06/07 09:08:52;;;;;;;6.63;4.50;;;24.60;94.70;;;;;;5103919;28;20198;-80
2023/06/07 09:11:21;;;;;;;6.15;3.92;;;25.70;91.10;;;;;;5098632;28;20223;-79
2023/06/07 09:13:49;;;;;;;6.05;4.32;;;27.10;88.80;;;;;;5104985;28;20701;-78
2023/06/07 09:16:18;;;;;;;6.07;3.85;;;28.40;75.80;;;;;;5102140;28;20215;-80
2023/06/07 09:18:53;;;;;;;5.03;4.10;;;28.10;78.90;;;;;;5125324;28;20202;-80
2023/06/07 09:21:26;;;;;;;4.53;4.03;;;29.80;73.40;;;;;;5123050;28;20240;-78
2023/06/07 09:23:56;;;;;;;3.80;3.40;;;29.40;62.30;;;;;;5102101;28;20262;-79
2023/06/07 09:26:35;;;;;;;5.22;3.47;;;29.80;66.00;;;;;;5097139;28;20240;-77
2023/06/07 09:29:05;;;;;;;4.95;3.00;;;29.60;64.00;;;;;;5096976;28;20206;-79
2023/06/07 09:31:33;;;;;;;3.88;3.20;;;29.10;62.20;;;;;;5102227;28;20206;-76
2023/06/07 09:34:19;;;;;;;3.53;3.17;;;28.90;60.80;;;;;;5095803;28;20234;-78
2023/06/07 09:36:54;;;;;;;5.68;3.00;;;28.20;62.70;;;;;;5096513;28;20270;-79
2023/06/07 09:39:24;;;;;;;3.33;2.90;;;28.10;65.90;;;;;;5110859;28;20201;-80
2023/06/07 09:41:54;;;;;;;3.33;2.90;;;28.90;66.90;;;;;;5122223;28;20245;-78
2023/06/07 09:44:23;;;;;;;4.07;2.55;;;28.50;62.20;;;;;;5122147;28;20210;-78
2023/06/07 09:46:51;;;;;;;5.90;3.05;;;29.60;60.20;;;;;;5112758;28;20203;-79
2023/06/07 09:49:31;;;;;;;5.55;3.70;;;29.10;57.70;;;;;;5098004;28;20211;-79
2023/06/07 09:52:02;;;;;;;4.93;3.60;;;28.40;58.90;;;;;;5095840;28;20193;-77
2023/06/07 09:54:38;;;;;;;4.65;3.08;;;28.00;60.80;;;;;;5096466;28;20234;-79
2023/06/07 09:57:08;;;;;;;5.68;3.38;;;27.00;64.10;;;;;;5105638;28;20692;-78
2023/06/07 09:59:37;;;;;;;4.28;3.22;;;25.60;65.20;;;;;;5115561;28;20259;-78
2023/06/07 10:02:24;;;;;;;3.75;3.00;;;24.90;71.30;;;;;;5115267;28;20202;-79
2023/06/07 10:04:53;;;;;;;5.35;4.35;;;24.50;75.30;;;;;;5116100;28;20625;-79
2023/06/07 10:07:30;;;;;;;5.40;3.67;;;24.00;78.00;;;;;;5115776;28;20668;-82
2023/06/07 10:09:59;;;;;;;4.37;3.43;;;24.20;83.20;;;;;;5117843;28;20218;-81
2023/06/07 10:12:29;;;;;;;4.35;3.58;;;25.60;80.00;;;;;;5115094;28;20660;-79
2023/06/07 10:15:00;;;;;;;4.40;3.50;;;27.00;69.30;;;;;;5113866;28;20247;-80
2023/06/07 10:17:35;;;;;;;3.40;3.10;;;26.90;66.00;;;;;;5117291;28;20202;-78
2023/06/07 10:20:06;;;;;;;3.55;3.10;;;27.20;65.10;;;;;;5120261;27;20570;-77
2023/06/07 10:22:42;;;;;;;4.25;3.75;;;27.00;64.50;;;;;;5119307;28;20206;-80
2023/06/07 10:25:15;;;;;;;5.30;3.70;;;26.20;63.80;;;;;;5115520;27;20198;-79
2023/06/07 10:27:50;;;;;;;7.15;3.30;;;26.40;65.90;;;;;;5119912;28;20278;-79
2023/06/07 10:30:20;;;;;;;4.78;3.45;;;26.90;69.50;;;;;;5116701;28;20615;-76
2023/06/07 10:32:49;;;;;;;4.00;3.60;;;28.00;62.50;;;;;;5110759;28;20298;-81
2023/06/07 10:35:18;;;;;;;3.65;3.35;;;29.80;57.80;;;;;;5096083;28;20226;-80
2023/06/07 10:37:50;;;;;;;4.25;3.30;;;29.60;58.70;;;;;;5100506;28;20211;-79
2023/06/07 10:40:19;;;;;;;4.65;2.95;;;29.00;57.70;;;;;;5095385;28;20237;-76
2023/06/07 10:42:47;;;;;;;4.38;3.15;;;28.90;57.80;;;;;;5116620;28;20236;-79
2023/06/07 10:45:18;;;;;;;5.10;3.58;;;28.50;61.90;;;;;;5118247;28;20238;-80
2023/06/07 10:47:48;;;;;;;5.68;3.63;;;29.50;57.90;;;;;;5119224;28;20206;-78
2023/06/07 10:50:47;;;;;;;7.35;3.70;;;30.30;55.50;;;;;;5117811;28;20206;-81
2023/06/07 10:53:17;;;;;;;4.15;3.75;;;31.20;50.50;;;;;;5116063;28;20291;-80
2023/06/07 10:55:45;;;;;;;4.13;3.33;;;31.40;48.20;;;;;;5118271;28;20279;-80
2023/06/07 10:58:27;;;;;;;3.92;3.20;;;31.40;47.90;;;;;;5123424;28;20569;-80
2023/06/07 11:00:56;;;;;;;6.70;3.33;;;30.40;48.10;;;;;;5118775;28;20239;-79
2023/06/07 11:03:40;;;;;;;4.63;3.10;;;29.40;54.70;;;;;;5119232;28;20210;-80
2023/06/07 11:06:10;;;;;;;5.38;3.80;;;29.30;56.60;;;;;;5115214;28;20467;-77
2023/06/07 11:08:39;;;;;;;3.63;3.17;;;28.20;55.60;;;;;;5113950;28;20211;-78
2023/06/07 11:11:53;;;;;;;5.10;3.80;;;27.60;56.60;;;;;;5114126;28;20217;-78
2023/06/07 11:14:21;;;;;;;5.20;3.50;;;26.00;59.50;;;;;;5113874;28;20590;-78
2023/06/07 11:16:50;;;;;;;6.30;3.85;;;25.40;65.10;;;;;;5113217;28;20209;-78
2023/06/07 11:19:19;;;;;;;5.63;4.30;;;24.60;66.70;;;;;;5093598;28;20234;-80
2023/06/07 11:22:09;;;;;;;4.60;4.07;;;24.20;63.80;;;;;;5096609;28;20216;-79
2023/06/07 11:24:39;;;;;;;4.30;3.70;;;24.60;66.30;;;;;;5113799;28;20211;-80
2023/06/07 11:27:14;;;;;;;7.07;3.90;;;24.60;67.20;;;;;;5113015;28;20206;-80
2023/06/07 11:29:43;;;;;;;6.90;4.07;;;25.30;65.60;;;;;;5113473;28;20205;-78
2023/06/07 11:32:12;;;;;;;4.07;3.67;;;26.20;64.20;;;;;;5113415;28;20223;-78
2023/06/07 11:34:41;;;;;;;4.10;3.70;;;26.70;60.20;;;;;;5115004;28;20218;-79
2023/06/07 11:37:10;;;;;;;5.20;3.50;;;27.40;57.60;;;;;;5114380;28;20289;-80
2023/06/07 11:39:40;;;;;;;6.38;3.53;;;27.20;59.00;;;;;;5115224;28;20660;-80
2023/06/07 11:42:08;;;;;;;3.75;3.40;;;27.30;56.40;;;;;;5114200;28;20255;-79
2023/06/07 11:44:37;;;;;;;5.57;3.90;;;27.50;56.80;;;;;;5115047;28;20213;-78
2023/06/07 11:47:06;;;;;;;6.10;3.50;;;27.50;55.00;;;;;;5113768;28;20206;-80
2023/06/07 11:49:38;;;;;;;4.53;3.33;;;27.80;54.40;;;;;;5114516;28;20233;-79
2023/06/07 11:52:07;;;;;;;3.63;3.33;;;27.50;55.50;;;;;;5094331;28;20306;-79
2023/06/07 11:54:41;;;;;;;5.00;3.28;;;27.30;55.60;;;;;;5094823;28;20700;-77
2023/06/07 11:57:11;;;;;;;6.20;4.03;;;26.40;54.50;;;;;;5095307;28;20232;-77
2023/06/07 11:59:42;;;;;;;6.67;3.97;;;26.30;56.00;;;;;;5104824;28;20206;-79
2023/06/07 12:02:12;;;;;;;4.73;4.13;;;25.90;57.70;;;;;;5112940;27;20263;-76
2023/06/07 12:04:42;;;;;;;5.33;4.13;;;25.60;58.10;;;;;;5114610;28;20268;-80
2023/06/07 12:07:21;;;;;;;5.67;3.80;;;25.20;56.20;;;;;;5113040;28;20214;-80
2023/06/07 12:09:52;;;;;;;4.03;3.43;;;24.50;57.40;;;;;;5115663;28;20624;-81
2023/06/07 12:12:23;;;;;;;5.80;3.70;;;24.60;58.30;;;;;;5114728;28;20640;-78
2023/06/07 12:15:02;;;;;;;7.33;3.83;;;24.50;56.00;;;;;;5104864;28;20219;-79
2023/06/07 12:17:34;;;;;;;6.40;3.93;;;24.60;54.90;;;;;;5094211;28;20242;-80
2023/06/07 12:20:11;;;;;;;4.80;3.30;;;24.90;54.30;;;;;;5095124;28;20211;-77
2023/06/07 12:22:39;;;;;;;5.77;3.60;;;25.30;55.20;;;;;;5095135;28;20256;-81
2023/06/07 12:25:09;;;;;;;5.10;3.60;;;25.80;57.00;;;;;;5097487;28;20206;-80
2023/06/07 12:27:39;;;;;;;3.70;3.20;;;26.30;57.30;;;;;;5097403;28;20604;-77
2023/06/07 12:30:09;;;;;;;6.77;3.90;;;26.80;55.90;;;;;;5095786;28;20203;-78
2023/06/07 12:32:38;;;;;;;6.03;3.80;;;26.50;55.40;;;;;;5097530;28;20263;-79
2023/06/07 12:35:11;;;;;;;9.90;4.00;;;26.30;56.90;;;;;;5108404;28;20637;-79
2023/06/07 12:37:39;;;;;;;4.70;3.70;;;25.90;57.20;;;;;;5112631;28;20191;-80
2023/06/07 12:40:09;;;;;;;5.73;3.80;;;25.90;56.10;;;;;;5112667;28;20213;-79
2023/06/07 12:42:41;;;;;;;5.33;3.80;;;26.10;52.30;;;;;;5111288;28;20205;-80
2023/06/07 12:45:10;;;;;;;5.33;3.80;;;26.20;51.60;;;;;;5112675;28;20213;-77
2023/06/07 12:47:38;;;;;;;4.20;3.80;;;25.80;52.20;;;;;;5112095;28;20248;-76
2023/06/07 12:50:06;;;;;;;5.83;3.67;;;24.90;53.00;;;;;;5111237;28;20210;-80
2023/06/07 12:52:35;;;;;;;6.53;3.63;;;24.80;55.40;;;;;;5111983;28;20210;-79
2023/06/07 12:55:03;;;;;;;5.30;3.40;;;24.90;54.60;;;;;;5112729;28;20241;-79